Timeline UpdatesTrip UpdatesNews PostsPvt PostsTravel TipsAdmin PostsConv PostsFollowed PostsChat RequestsBlog PostsPNR Posts

Disclaimer
Search
 
 
Wed Jul 30, 2014 10:34:37 ISTHomeTrainsΣChainsAtlasPNRForumGalleryNewsFAQTripsMembersLoginFeedback
No Recent News for this Train
Other Trains in the News **new
Latest...
new timetable with effect from july 24 thursday for 15905 vivek( cape- dbrg )exp train leaves from cape at 23:00 instead of sat 14:45 and will reach monday dbrg at 07:15 instead of wed 03:30am
Tue Jun 24, 2014 (04:29PM)
⇐ Return Journey: Train# 15906

15905/Kanyakumari - Dibrugarh Vivek Express

Jul 24 (8:39PM)
Change Departure Station:
Change Arrival Station:
Post a Train Travel TipPost a Train Travel Tip **new
Post a Comment/Question/Picture/VideoPost a Comment/Question/Picture/Video
Inaugural Run
Sat Nov 26, 2011
Pantry/Catering
✓ Pantry Car Avbl
✓ Catering Avbl
Loco/Rake Reversals
DGR/Durgapur (5); VSKP/Visakhapatnam Junction (8);
RSA - Rake Sharing
.
Rake/Coach Composition
LOCO-SLR-GS-GS-GS-B2-B1-A1-PC-S9-S8-S7-S6-S5-S4-S3-S2-S1-GS-GS-GS-SLR
Loco
Official Loco Links:- CAPE - VSKP :- WAM-4/WAP-4 VSKP - DGR :-...
Read more...
WAM-4/WAP-4 DGR - DBRG :- WDM-3A
News    PNR    Forum    Time-Table    Availability    Fare Chart    Map    Arr/Dep History    Trips    Gallery    ΣChains    X/O    Timeline    
Travel Time: 80h 15m    55 halts    Distance: 4236 km    Avg Speed: 52 km/hr
Type: Mail/Express
Zone: NFR/Northeast Frontier
Departs @ 23:00 (Avg on time)
Platform# ???
    T  
Kanniyakumari/CAPE 
Arrives @ 07:15 +4 nights (Avg 1h 42m late)
Platform# ???
 M     
Dibrugarh/DBRG 

55 halts. 674 intermediate Stations between Kanniyakumari and Dibrugarh

Show ALL intermediate Stations  Show Old Time-Table

#CodeStation NameX/OArrivesAvgDepartsAvgHaltPFDay#KmSpeedElevZoneAddress
1CAPE»Kanniyakumari (3)»  -23:00+0--10.04738mSRKanyakumari, Tamil Nadu
2NCJNagercoil Junction (4)  23:20-423:25+25m--115.55322mSRNagercoil-629002, Tamil Nadu
3TVCTrivandrum Central (5)  00:45+400:50+75m--286.67012mSRThiruvananthapuram 695001, Kerala
4QLNKollam Junction (6)  01:45+1601:50+155m22151.26316mSRKollam 0474-2746194, Kerala
5CNGRChengannur (3)  02:48+2102:50+262m32212.2526mSRPh: 0479-2452340, Kerala
6KTYMKottayam (3)X  03:30+2803:35+305m--2247.03415mSRTel: 0481 2563535, Kerala
7ERNErnakulam Town (North) (2)X  05:20+3305:25+405m--2307.0789mSRTel: 0484 2395198, Kerala
8AWYAluva (3)  05:38+4305:40+442m--2323.86012mSRPh: 0484-2624141, Kerala
9TCRThrissur (4)X  06:35+3306:38+333m--2378.4476mSRThrissur Tel: 0487 2423150, Kerala
10PGTPalakkad Junction (4)  08:15+1708:20+195m32454.24484mSRPalghat Tel: 0491 2555231, Kerala
11CBECoimbatore Main Junction (6)X  09:35+2909:40+345m--2509.563416mSRCoimbatore 641001, Tamil Nadu
12TUPTiruppur (2)X  10:28+3810:30+382m22560.075305mSRTiruppur. Ph:0421-2200450, Tamil Nadu
13EDErode Junction (4)X  11:10+3811:15+395m12610.274175mSRErode ph.no: 0424-2256111, Tamil Nadu
14SASalem Junction (6)  12:05+4312:10+455m--2671.674283mSRSalem, Tamil Nadu
15JTJJolarpettai Junction (5)XO  13:48+4513:50+492m--2791.874405mSRJolarpettai, Tamil Nadu
16KPDKatpadi Junction (5)  14:58+4415:00+442m22875.753213mSRVellore 632007, Tamil Nadu
17RURenigunta Junction (5)  17:20+2017:35+2615m--21000.168113mSCRChittoor District, Andhra Pradesh
18NLRNellore (4)  19:23+2819:25+282m221121.97521mSCRNellore, Andhra Pradesh
19OGLOngole (3)  20:58+4621:00+542m121238.75412mSCROngole, Andhra Pradesh
20BZAVijayawada Junction (10)X  23:35+2723:45+3110m--21377.08324mSCRVijayawada 520001, Andhra Pradesh
21EEEluru (3)X  00:28+5600:30+572m231436.36519mSCREluru Ph.no. 08812 226401., Andhra Pradesh
22RJYRajahmundry (3)X  01:53+5601:55+592m331526.27923mSCRRajahmundry ph.no. 0883-2420541, Andhra Pradesh
23SLOSamalkot Junction (3)  02:33+1202:35+162m131576.44218mSCRSamalkot, Andhra Pradesh
24DVDDuvvada (4)  05:46+1005:48+102m--31709.73646mECoRVishakhapatnam District, Andhra Pradesh
25VSKPVisakhapatnam Junction (8)06:15+1506:35+2720m--31726.15411mECoRVishakhapatnam 530001, Andhra Pradesh
26VZMVizianagaram Junction (5)X  07:43+3007:45+322m--31787.28263mECoRVizianagaram, Andhra Pradesh
27CHESrikakulam Road (4)  08:36+3308:38+352m--31856.85534mECoRsrikakulam road ph .no. 08942-287222, Andhra Pradesh
28PSAPalasa (3)  09:58+4510:00+462m--31929.76431mECoRKasibugga, Andhra Pradesh
29BAMBrahmapur (3)  11:10+5111:15+535m--32004.16827mECoRBerhampur, Odisha
30KURKhurda Road Junction (7)X  13:25+4413:40+4615m--32151.24525mECoRKhordha, Odisha
31BBSBhubaneswar (4)  14:05+4714:10+475m--32170.13740mECoRBhubaneshwar, Odisha
32CTCCuttack Junction (5)X  14:55+1:1015:00+1:115m--32198.06628mECoRCuttack, Odisha
33BHCBhadrak (4)X  16:45+4516:47+452m--32313.68723mECoRBhadrak, Odisha
34BLSBalasore (4)X  17:30+5817:32+582m--32376.16519mSERBalasore, Odisha
35HIJHijli (2)  19:15+5819:20+1:005m--32488.31448mSERdist - paschim medinipur, West Bengal
36MDNMidnapore (3)  20:18+5120:20+512m--32502.09053mSERMedinipur, West Bengal
37BQABankura Junction (3)  21:28+1:0821:30+1:092m--32604.67189mSERDist - Bankura, West Bengal
38ADRAAdra Junction (4)  22:15+1:0022:25+5710m--32657.538190mSERDist - Puruliya, West Bengal
39ASNAsansol Junction (7)X  23:30+1:1323:40+1:1310m--32699.039113mERDist - bardhaman, West Bengal
40DGRDurgapur (5)XO00:46+1:0901:11+1:0125m142741.45671mERDurgapur, West Bengal
41RPHRampurhat (3)X  03:17+1:1703:22+1:195m242859.64641mERDIST - Birbhum, West Bengal
42MLDTMalda Town (5)  06:05+5106:20+5415m--42983.46830mERDist - Malda, West Bengal
43KNEKishanGanj (3)  08:31+1:3608:33+1:362m--43131.55152mNFRKishanganj, Bihar
44NJPNew Jalpaiguri Junction (8)O  10:15+1:4610:30+1:5415m143218.959114mNFRCity-Siliguri . Dist-Jalpaiguri, West Bengal
45APDJAlipur Duar Junction (3)  13:20+1:5313:30+2:0410m--43387.47553mNFRDist - Alipurduar, West Bengal
46KOJKokrajhar (3)  14:35+2:1214:37+2:172m--43468.62746mNFR03661-270618, Assam
47NBQNew Bongaigaon Junction (4)X  15:40+1:3115:45+1:335m--43496.47758mNFR783381., Assam
48GLPTGoalpara Town (2)  16:25+1:2516:27+1:262m--43547.94849mNFRGoalpara Town Rail Station, Assam
49GHYGuwahati (7)X  19:10+1:5019:25+2:0515m--43678.45360mNFRGuwahati, Assam
50JIDJagi Road (2)  20:30+2:1720:32+2:192m--43735.56062mNFRJagiroad, Assam
51LMGLumding Junction (5)  22:35+2:5422:37+2:542m--43859.252142mNFRLumding, Assam
52DPUDiphu (2)  23:14+2:3923:16+2:402m--43891.338180mNFRDiphu, Assam
53DMVDimapur (3)  00:15+2:4500:20+2:495m--53928.653153mNFRDimapur, Nagaland
54FKGFurkating Junction (2)  01:40+2:5001:42+2:502m--53998.869 NFRK B Rd, Assam
55MXNMariani Junction (4)  02:15+2:3902:25+2:3910m154036.855117mNFRDist. Jorhat Pin-785634, Assam
56NTSKNew Tinsukia Junction (3)X  05:15+2:2305:25+2:2210m--54193.523124mNFRDist: Tinsukia, Assam
57DBRG•Dibrugarh (4)•  07:15+1:42---54235.5-108mNFRDibrugarh 786003, Assam
Scroll to Top
Scroll to Bottom